Time;durP1;ratioP1;P1;durP2;ratioP2;P2;SDS_P1;SDS_P2;PMS_P1;PMS_P2;Temp;Humidity;BMP_temperature;BMP_pressure;BME280_temperature;BME280_humidity;BME280_pressure;Samples;Min_cycle;Max_cycle;Signal;HPM_P1;HPM_P2
2021/12/11 00:01:48;;;;;;;3.50;1.67;;;2.20;99.90;;;;;;4996911;28;20167;-77
2021/12/11 00:04:19;;;;;;;3.97;1.80;;;2.20;99.90;;;;;;4996817;28;20247;-76
2021/12/11 00:06:52;;;;;;;2.57;1.50;;;2.20;99.90;;;;;;4996796;28;20203;-77
2021/12/11 00:09:28;;;;;;;4.67;2.40;;;2.20;99.90;;;;;;4996543;28;20172;-76
2021/12/11 00:12:05;;;;;;;6.27;2.13;;;2.20;99.90;;;;;;4996586;28;20168;-76
2021/12/11 00:14:34;;;;;;;3.10;1.47;;;2.20;99.90;;;;;;4996232;28;20650;-77
2021/12/11 00:17:00;;;;;;;6.80;2.20;;;2.20;99.90;;;;;;4996431;28;20207;-77
2021/12/11 00:19:30;;;;;;;3.83;2.10;;;2.20;99.90;;;;;;4996821;28;20168;-77
2021/12/11 00:22:24;;;;;;;5.67;2.23;;;2.20;99.90;;;;;;4979247;28;20172;-77
2021/12/11 00:24:51;;;;;;;2.43;1.63;;;2.20;99.90;;;;;;4993449;28;20556;-77
2021/12/11 00:27:26;;;;;;;5.57;2.30;;;2.20;99.90;;;;;;4978884;28;20223;-76
2021/12/11 00:29:53;;;;;;;3.83;2.30;;;2.20;99.90;;;;;;4995902;28;20183;-77
2021/12/11 00:32:29;;;;;;;7.33;2.67;;;2.20;99.90;;;;;;4998501;28;20279;-77
2021/12/11 00:35:23;;;;;;;5.00;2.23;;;2.20;99.90;;;;;;4996060;28;20202;-76
2021/12/11 00:37:49;;;;;;;4.13;2.00;;;2.20;99.90;;;;;;4991974;28;20287;-76
2021/12/11 00:40:20;;;;;;;3.77;2.07;;;2.20;99.90;;;;;;4995771;28;20515;-76
2021/12/11 00:42:51;;;;;;;3.90;2.10;;;2.20;99.90;;;;;;4978256;28;20234;-76
2021/12/11 00:45:22;;;;;;;1.60;1.50;;;2.20;99.90;;;;;;4978226;28;20171;-76
2021/12/11 00:47:52;;;;;;;5.53;1.93;;;2.20;99.90;;;;;;4978829;28;20207;-76
2021/12/11 00:50:20;;;;;;;4.03;2.00;;;2.20;99.90;;;;;;4995059;28;20316;-76
2021/12/11 00:52:54;;;;;;;3.77;2.60;;;2.20;99.90;;;;;;4995994;28;20176;-77
2021/12/11 00:55:23;;;;;;;2.20;1.90;;;2.20;99.90;;;;;;4995466;28;20196;-77
2021/12/11 00:58:00;;;;;;;5.03;2.20;;;2.20;99.90;;;;;;4996553;28;20291;-77
2021/12/11 01:00:27;;;;;;;4.87;2.10;;;2.30;99.90;;;;;;4995801;28;20199;-76
2021/12/11 01:02:55;;;;;;;3.63;1.63;;;2.30;99.90;;;;;;4995751;28;20259;-76
2021/12/11 01:05:23;;;;;;;2.67;1.97;;;2.30;99.90;;;;;;4995492;28;20176;-78
2021/12/11 01:07:49;;;;;;;6.57;2.37;;;2.30;99.90;;;;;;4995269;28;20238;-77
2021/12/11 01:10:25;;;;;;;3.93;2.43;;;2.30;99.90;;;;;;4995159;28;20646;-76
2021/12/11 01:13:01;;;;;;;3.67;1.97;;;2.20;99.90;;;;;;4977702;28;20180;-77
2021/12/11 01:15:35;;;;;;;7.20;1.80;;;2.30;99.90;;;;;;4978379;28;20266;-76
2021/12/11 01:18:40;;;;;;;2.63;1.33;;;2.30;99.90;;;;;;4994766;28;20591;-76
2021/12/11 01:21:57;;;;;;;3.27;1.50;;;3.00;99.90;;;;;;4992805;28;20184;-76
2021/12/11 01:24:11;;;;;;;2.43;1.93;;;2.30;99.90;;;;;;4990875;28;20271;-77
2021/12/11 01:26:42;;;;;;;4.00;2.30;;;2.30;99.90;;;;;;4977489;28;20247;-77
2021/12/11 01:29:08;;;;;;;2.03;1.43;;;2.30;99.90;;;;;;4977354;28;20196;-77
2021/12/11 01:31:34;;;;;;;2.60;1.73;;;2.40;99.90;;;;;;4994950;28;20186;-76
2021/12/11 01:34:00;;;;;;;4.57;1.60;;;2.30;99.90;;;;;;4995270;28;20188;-76
2021/12/11 01:36:26;;;;;;;3.87;1.50;;;2.20;99.90;;;;;;4994829;28;20200;-77
2021/12/11 01:39:01;;;;;;;3.43;1.53;;;2.20;99.90;;;;;;4994805;28;20211;-77
2021/12/11 01:41:28;;;;;;;1.90;1.20;;;2.20;99.90;;;;;;4995015;28;20183;-76
2021/12/11 01:43:59;;;;;;;2.73;1.87;;;2.30;99.90;;;;;;4977228;28;20725;-76
2021/12/11 01:46:26;;;;;;;2.13;1.57;;;2.30;99.90;;;;;;4977819;28;20548;-76
2021/12/11 01:48:58;;;;;;;4.40;2.17;;;2.50;99.90;;;;;;4976983;28;20694;-77
2021/12/11 01:51:33;;;;;;;3.83;2.00;;;2.30;99.90;;;;;;4994555;28;20172;-77
2021/12/11 01:54:17;;;;;;;3.37;1.60;;;2.30;99.90;;;;;;4994329;28;20650;-77
2021/12/11 01:56:49;;;;;;;2.30;1.10;;;2.30;99.90;;;;;;4994344;28;20696;-77
2021/12/11 01:59:21;;;;;;;1.67;1.57;;;2.30;99.90;;;;;;4976645;28;20208;-77
2021/12/11 02:01:57;;;;;;;2.10;1.70;;;2.20;99.90;;;;;;4993598;28;20646;-77
2021/12/11 02:04:26;;;;;;;3.87;1.97;;;2.20;99.90;;;;;;4977482;28;20171;-77
2021/12/11 02:06:53;;;;;;;2.13;1.43;;;2.20;99.90;;;;;;4994764;28;20653;-78
2021/12/11 02:09:25;;;;;;;15.30;1.40;;;2.20;99.90;;;;;;4994449;28;20175;-76
2021/12/11 02:12:00;;;;;;;2.53;1.40;;;2.20;99.90;;;;;;4994439;28;20191;-77
2021/12/11 02:14:33;;;;;;;1.33;1.13;;;2.10;99.90;;;;;;4994365;28;20179;-76
2021/12/11 02:17:01;;;;;;;3.70;1.57;;;2.30;99.90;;;;;;4994179;28;20230;-76
2021/12/11 02:19:32;;;;;;;2.10;1.43;;;2.10;99.90;;;;;;4976821;28;20168;-76
2021/12/11 02:22:01;;;;;;;3.00;1.27;;;2.20;99.90;;;;;;4994315;28;20178;-77
2021/12/11 02:24:59;;;;;;;2.23;1.87;;;2.20;99.90;;;;;;4996661;28;20168;-76
2021/12/11 02:27:40;;;;;;;1.47;1.37;;;2.10;99.90;;;;;;4976549;28;20214;-76
2021/12/11 02:30:32;;;;;;;2.73;1.70;;;2.10;99.90;;;;;;4994040;28;20172;-76
2021/12/11 02:33:25;;;;;;;3.67;2.50;;;2.10;99.90;;;;;;4994203;28;20179;-77
2021/12/11 02:36:15;;;;;;;3.97;2.10;;;2.10;99.90;;;;;;4993508;28;20674;-76
2021/12/11 02:39:01;;;;;;;2.20;2.00;;;2.10;99.90;;;;;;4994254;28;20203;-77
2021/12/11 02:41:49;;;;;;;2.87;1.87;;;2.00;99.90;;;;;;4994461;28;20254;-77
2021/12/11 02:44:37;;;;;;;1.87;1.50;;;2.10;99.90;;;;;;4994609;28;20168;-77
2021/12/11 02:47:09;;;;;;;3.30;1.83;;;2.10;99.90;;;;;;4976575;28;20167;-77
2021/12/11 02:49:40;;;;;;;6.17;1.70;;;2.10;99.90;;;;;;4993947;28;20650;-76
2021/12/11 02:52:15;;;;;;;3.13;2.27;;;2.10;99.90;;;;;;4976542;28;20544;-77
2021/12/11 02:55:06;;;;;;;3.53;2.10;;;2.10;99.90;;;;;;4994252;28;20167;-76
2021/12/11 02:57:40;;;;;;;2.00;1.80;;;2.10;99.90;;;;;;4992869;28;20616;-78
2021/12/11 03:00:12;;;;;;;3.37;1.37;;;2.00;99.90;;;;;;4990241;28;20264;-78
2021/12/11 03:02:44;;;;;;;2.43;1.83;;;2.10;99.90;;;;;;4990021;28;20174;-77
2021/12/11 03:05:13;;;;;;;2.63;1.73;;;2.10;99.90;;;;;;4991954;28;20180;-77
2021/12/11 03:07:44;;;;;;;1.40;1.30;;;2.10;99.90;;;;;;4991741;28;20200;-77
2021/12/11 03:10:14;;;;;;;2.27;1.70;;;2.00;99.90;;;;;;4993944;28;20183;-77
2021/12/11 03:12:43;;;;;;;4.17;2.10;;;2.00;99.90;;;;;;4994601;28;20279;-77
2021/12/11 03:15:12;;;;;;;3.37;1.53;;;2.00;99.90;;;;;;4997430;28;20196;-78
2021/12/11 03:17:38;;;;;;;2.10;1.90;;;2.00;99.90;;;;;;4980589;28;20202;-76
2021/12/11 03:20:07;;;;;;;1.73;1.63;;;2.00;99.90;;;;;;4981147;28;20183;-77
2021/12/11 03:22:34;;;;;;;1.60;1.40;;;2.00;99.90;;;;;;4981820;28;20203;-77
2021/12/11 03:25:02;;;;;;;1.77;1.60;;;2.00;99.90;;;;;;4981350;28;20537;-77
2021/12/11 03:27:28;;;;;;;3.87;2.07;;;2.00;99.90;;;;;;4997705;28;20191;-77
2021/12/11 03:29:54;;;;;;;2.90;2.37;;;2.00;99.90;;;;;;4981230;28;20230;-78
2021/12/11 03:32:20;;;;;;;1.60;1.37;;;2.00;99.90;;;;;;4998311;28;20706;-77
2021/12/11 03:34:47;;;;;;;1.70;1.17;;;2.00;99.90;;;;;;4997753;28;20175;-77
2021/12/11 03:37:15;;;;;;;3.87;1.83;;;2.00;99.90;;;;;;4997802;28;20196;-77
2021/12/11 03:39:45;;;;;;;0.90;0.90;;;2.10;99.90;;;;;;4998271;28;20258;-77
2021/12/11 03:42:26;;;;;;;2.63;1.90;;;2.00;99.90;;;;;;4998671;28;20179;-77
2021/12/11 03:44:52;;;;;;;2.60;1.77;;;2.00;99.90;;;;;;4980851;28;20259;-76
2021/12/11 03:47:27;;;;;;;2.07;1.97;;;2.00;99.90;;;;;;4997420;28;20689;-77
2021/12/11 03:49:53;;;;;;;3.67;2.50;;;2.00;99.90;;;;;;4998082;28;20318;-77
2021/12/11 03:52:19;;;;;;;4.00;1.33;;;2.10;99.90;;;;;;4979827;28;20670;-77
2021/12/11 03:54:48;;;;;;;3.00;2.10;;;2.00;99.90;;;;;;4997680;28;20172;-77
2021/12/11 03:57:16;;;;;;;2.67;1.90;;;2.00;99.90;;;;;;4979024;28;20690;-76
2021/12/11 03:59:47;;;;;;;3.60;2.63;;;2.00;99.90;;;;;;4996275;28;20175;-76
2021/12/11 04:02:15;;;;;;;4.93;2.27;;;2.00;99.90;;;;;;4997057;28;20176;-77
2021/12/11 04:04:47;;;;;;;2.83;2.43;;;2.00;99.90;;;;;;4978966;28;20184;-76
2021/12/11 04:07:19;;;;;;;2.30;2.10;;;2.10;99.90;;;;;;4996356;28;20196;-76
2021/12/11 04:09:46;;;;;;;2.40;2.20;;;2.10;99.90;;;;;;4996493;28;20271;-76
2021/12/11 04:12:13;;;;;;;3.00;1.70;;;2.10;99.90;;;;;;4996215;28;20180;-76
2021/12/11 04:14:42;;;;;;;4.40;2.27;;;2.00;99.90;;;;;;4996032;28;20180;-76
2021/12/11 04:17:10;;;;;;;2.50;2.30;;;2.00;99.90;;;;;;4981245;28;20172;-76
2021/12/11 04:19:36;;;;;;;2.50;2.10;;;2.00;99.90;;;;;;4996064;28;20174;-76
2021/12/11 04:22:04;;;;;;;2.83;2.27;;;2.10;99.90;;;;;;4978646;28;20171;-76
2021/12/11 04:24:32;;;;;;;1.40;1.30;;;2.00;99.90;;;;;;4977535;28;20306;-77
2021/12/11 04:26:59;;;;;;;3.63;1.60;;;2.00;99.90;;;;;;4996479;28;20179;-77
2021/12/11 04:29:26;;;;;;;3.40;1.93;;;2.00;99.90;;;;;;4995750;28;20191;-76
2021/12/11 04:31:53;;;;;;;3.00;2.10;;;2.10;99.90;;;;;;4995965;28;20640;-76
2021/12/11 04:34:21;;;;;;;2.50;1.90;;;2.00;99.90;;;;;;4978480;28;20658;-76
2021/12/11 04:36:56;;;;;;;2.80;1.93;;;2.00;99.90;;;;;;4995791;28;20253;-76
2021/12/11 04:39:23;;;;;;;1.70;1.23;;;2.00;99.90;;;;;;4995717;28;20662;-76
2021/12/11 04:41:59;;;;;;;3.47;1.60;;;2.00;99.90;;;;;;4995712;28;20168;-77
2021/12/11 04:44:40;;;;;;;1.80;1.70;;;1.90;99.90;;;;;;4995667;28;20168;-76
2021/12/11 04:47:11;;;;;;;1.43;1.20;;;1.90;99.90;;;;;;4995681;28;20172;-76
2021/12/11 04:49:44;;;;;;;2.37;1.93;;;1.90;99.90;;;;;;4978423;28;20183;-76
2021/12/11 04:52:31;;;;;;;3.30;1.83;;;1.90;99.90;;;;;;4978157;28;20172;-76
2021/12/11 05:01:07;;;;;;;2.43;1.40;;;1.90;99.90;;;;;;4995409;28;20194;-76
2021/12/11 05:10:56;;;;;;;2.40;1.80;;;1.90;99.90;;;;;;4994362;28;20319;-77
2021/12/11 05:13:24;;;;;;;1.73;1.63;;;1.90;99.90;;;;;;4995849;28;20179;-76
2021/12/11 05:15:52;;;;;;;3.13;1.70;;;1.90;99.90;;;;;;4994490;28;20203;-76
2021/12/11 05:18:23;;;;;;;2.57;1.73;;;1.90;99.90;;;;;;4978043;28;20203;-76
2021/12/11 05:20:59;;;;;;;2.43;1.90;;;1.90;99.90;;;;;;4995478;28;20172;-76
2021/12/11 05:23:25;;;;;;;1.33;1.10;;;2.00;99.90;;;;;;4995307;28;20250;-76
2021/12/11 05:25:51;;;;;;;2.60;1.70;;;1.90;99.90;;;;;;4995085;28;20202;-77
2021/12/11 05:28:17;;;;;;;2.47;1.33;;;2.30;99.90;;;;;;4977422;28;20278;-76
2021/12/11 05:30:46;;;;;;;2.80;1.70;;;1.90;99.90;;;;;;4994768;28;20613;-76
2021/12/11 05:33:12;;;;;;;1.73;1.57;;;1.90;99.90;;;;;;4977354;28;20618;-76
2021/12/11 05:35:40;;;;;;;2.90;1.47;;;1.90;99.90;;;;;;4977017;28;20199;-76
2021/12/11 05:38:08;;;;;;;1.23;1.13;;;1.90;99.90;;;;;;4994660;28;20664;-76
2021/12/11 05:40:36;;;;;;;1.93;1.80;;;1.90;99.90;;;;;;4992614;28;20176;-76
2021/12/11 05:43:04;;;;;;;2.27;1.70;;;1.90;99.90;;;;;;4992277;28;20210;-76
2021/12/11 05:45:30;;;;;;;1.70;1.40;;;1.90;99.90;;;;;;4994389;28;20175;-76
2021/12/11 05:47:56;;;;;;;2.23;1.87;;;2.00;99.90;;;;;;4976891;28;20195;-76
2021/12/11 05:50:27;;;;;;;2.53;1.60;;;2.00;99.90;;;;;;4977546;28;20429;-76
2021/12/11 05:52:53;;;;;;;2.10;1.90;;;1.90;99.90;;;;;;4994569;28;20179;-76
2021/12/11 05:55:20;;;;;;;1.83;1.63;;;2.00;99.90;;;;;;4977025;28;20196;-76
2021/12/11 05:57:52;;;;;;;1.83;1.73;;;2.00;99.90;;;;;;4976851;28;20215;-76
2021/12/11 06:00:24;;;;;;;1.70;1.60;;;2.00;99.90;;;;;;4994228;28;20167;-76
2021/12/11 06:02:49;;;;;;;1.50;1.40;;;2.00;99.90;;;;;;4994354;28;20194;-76
2021/12/11 06:05:15;;;;;;;1.33;1.23;;;2.00;99.90;;;;;;4994256;28;20651;-76
2021/12/11 06:07:43;;;;;;;1.53;1.43;;;2.00;99.90;;;;;;4977333;28;20295;-77
2021/12/11 06:10:15;;;;;;;1.30;1.20;;;2.00;99.90;;;;;;4976731;28;20175;-76
2021/12/11 06:12:41;;;;;;;1.60;1.50;;;1.90;99.90;;;;;;4994237;28;20171;-76
2021/12/11 06:15:09;;;;;;;1.57;1.47;;;2.00;99.90;;;;;;4993764;28;20573;-77
2021/12/11 06:17:35;;;;;;;1.53;1.43;;;1.90;99.90;;;;;;4976668;28;20200;-76
2021/12/11 06:20:05;;;;;;;1.40;1.30;;;2.00;99.90;;;;;;4977010;28;20257;-77
2021/12/11 06:22:33;;;;;;;1.50;1.40;;;2.00;99.90;;;;;;5002823;28;20164;-77
2021/12/11 06:25:03;;;;;;;1.47;0.93;;;2.00;99.90;;;;;;4994000;28;20717;-76
2021/12/11 06:27:29;;;;;;;2.43;1.57;;;2.00;99.90;;;;;;4993926;28;20195;-76
2021/12/11 06:29:55;;;;;;;1.47;1.37;;;2.00;99.90;;;;;;4993749;28;20183;-76
2021/12/11 06:32:22;;;;;;;2.00;1.80;;;1.90;99.90;;;;;;4993960;28;20172;-76
2021/12/11 06:34:49;;;;;;;1.77;1.67;;;1.90;99.90;;;;;;4993865;28;20697;-76
2021/12/11 06:37:16;;;;;;;1.70;1.60;;;1.90;99.90;;;;;;4976250;28;20195;-76
2021/12/11 06:39:42;;;;;;;1.80;1.47;;;1.90;99.90;;;;;;4975971;28;20180;-76
2021/12/11 06:42:09;;;;;;;2.10;2.00;;;2.00;99.90;;;;;;4993660;28;20183;-77
2021/12/11 06:44:36;;;;;;;1.80;1.70;;;2.00;99.90;;;;;;4993684;28;20172;-76
2021/12/11 06:47:05;;;;;;;1.67;1.57;;;2.00;99.90;;;;;;4993776;28;20519;-76
2021/12/11 06:49:33;;;;;;;1.93;1.83;;;2.00;99.90;;;;;;4997347;28;20171;-76
2021/12/11 06:51:59;;;;;;;2.07;1.87;;;2.00;99.90;;;;;;4997928;28;20167;-76
2021/12/11 06:54:25;;;;;;;1.60;1.47;;;2.80;99.90;;;;;;4997715;28;20590;-76
2021/12/11 06:56:52;;;;;;;1.90;1.77;;;2.00;99.90;;;;;;4997663;28;20553;-76
2021/12/11 06:59:18;;;;;;;2.53;2.23;;;2.00;99.90;;;;;;4981829;28;20271;-76
2021/12/11 07:01:44;;;;;;;3.63;2.07;;;2.00;99.90;;;;;;4998001;28;20673;-76
2021/12/11 07:04:11;;;;;;;1.83;1.60;;;2.00;99.90;;;;;;4997104;28;20167;-76
2021/12/11 07:06:40;;;;;;;2.17;1.87;;;1.90;99.90;;;;;;4997512;28;20669;-76
2021/12/11 07:09:09;;;;;;;2.07;1.83;;;1.90;99.90;;;;;;4979886;28;20706;-76
2021/12/11 07:11:39;;;;;;;2.07;1.93;;;1.90;99.90;;;;;;4997626;28;20183;-76
2021/12/11 07:14:05;;;;;;;2.07;1.97;;;2.00;99.90;;;;;;4997282;28;20234;-76
2021/12/11 07:16:31;;;;;;;1.73;1.63;;;2.00;99.90;;;;;;4979751;28;20286;-76
2021/12/11 07:18:57;;;;;;;2.40;2.20;;;1.90;99.90;;;;;;4997230;28;20279;-75
2021/12/11 07:21:23;;;;;;;2.30;2.10;;;2.00;99.90;;;;;;4997057;28;20179;-76
2021/12/11 07:23:49;;;;;;;2.23;2.03;;;2.00;99.90;;;;;;4997963;28;20184;-76
2021/12/11 07:26:28;;;;;;;2.93;2.73;;;1.90;99.90;;;;;;4979751;28;20634;-76
2021/12/11 07:28:56;;;;;;;2.10;1.90;;;1.90;99.90;;;;;;4979538;28;20234;-75
2021/12/11 07:31:23;;;;;;;1.80;1.67;;;2.00;99.90;;;;;;4979593;28;20650;-76
2021/12/11 07:33:51;;;;;;;2.97;2.37;;;2.00;99.90;;;;;;4997154;28;20697;-76
2021/12/11 07:36:18;;;;;;;3.33;3.03;;;2.00;99.90;;;;;;4996827;28;20231;-76
2021/12/11 07:38:43;;;;;;;3.57;2.90;;;2.00;99.90;;;;;;4996794;28;20199;-76
2021/12/11 07:41:11;;;;;;;4.17;2.50;;;2.00;99.90;;;;;;4996817;28;20669;-75
2021/12/11 07:43:38;;;;;;;2.10;1.83;;;2.00;99.90;;;;;;4979659;28;20187;-76
2021/12/11 07:46:06;;;;;;;3.50;3.23;;;2.00;99.90;;;;;;4996847;28;20188;-76
2021/12/11 07:48:32;;;;;;;5.70;3.90;;;2.00;99.90;;;;;;4996692;28;20207;-76
2021/12/11 07:50:58;;;;;;;4.83;4.27;;;2.00;99.90;;;;;;4996667;28;20183;-76
2021/12/11 07:53:24;;;;;;;3.03;2.83;;;2.00;99.90;;;;;;4996734;28;20176;-76
2021/12/11 07:55:51;;;;;;;3.30;2.70;;;2.10;99.90;;;;;;4979087;28;20746;-76
2021/12/11 07:58:20;;;;;;;3.37;3.07;;;2.00;99.90;;;;;;4979227;28;20211;-76
2021/12/11 08:00:46;;;;;;;3.70;2.57;;;2.10;99.90;;;;;;4997017;28;20182;-76
2021/12/11 08:03:14;;;;;;;2.57;2.37;;;2.10;99.90;;;;;;4996373;28;20175;-76
2021/12/11 08:05:42;;;;;;;5.93;3.30;;;2.00;99.90;;;;;;4996857;28;20250;-76
2021/12/11 08:08:10;;;;;;;2.83;2.50;;;2.00;99.90;;;;;;4978866;28;20210;-76
2021/12/11 08:10:39;;;;;;;3.63;2.77;;;2.00;99.90;;;;;;4996395;28;20624;-76
2021/12/11 08:13:06;;;;;;;2.63;2.43;;;2.10;99.90;;;;;;5009807;28;20205;-77
2021/12/11 08:15:31;;;;;;;3.23;2.93;;;2.10;99.90;;;;;;4979260;28;20230;-75
2021/12/11 08:17:58;;;;;;;2.10;1.90;;;2.40;99.90;;;;;;4996296;28;20230;-76
2021/12/11 08:20:27;;;;;;;3.20;2.90;;;2.20;99.90;;;;;;4996310;28;20586;-76
2021/12/11 08:22:54;;;;;;;3.97;2.83;;;2.20;99.90;;;;;;4996166;28;20716;-76
2021/12/11 08:25:22;;;;;;;1.00;1.00;;;2.20;99.90;;;;;;4979074;28;20214;-76
2021/12/11 08:27:49;;;;;;;2.23;1.97;;;2.20;99.90;;;;;;4996031;28;20199;-76
2021/12/11 08:30:15;;;;;;;1.53;1.43;;;2.30;99.90;;;;;;4996184;28;20206;-76
2021/12/11 08:32:41;;;;;;;1.50;1.40;;;2.30;99.90;;;;;;4996218;28;20712;-75
2021/12/11 08:35:09;;;;;;;2.10;1.90;;;2.30;99.90;;;;;;4979002;28;20180;-76
2021/12/11 08:37:37;;;;;;;4.63;1.37;;;2.40;99.90;;;;;;4995474;28;20737;-76
2021/12/11 08:40:12;;;;;;;2.10;1.67;;;2.30;99.90;;;;;;4978271;28;20548;-76
2021/12/11 08:42:39;;;;;;;2.70;1.90;;;2.40;99.90;;;;;;4995991;28;20178;-77
2021/12/11 08:45:10;;;;;;;1.53;1.43;;;2.40;99.90;;;;;;4995528;28;20182;-75
2021/12/11 08:47:41;;;;;;;1.40;1.30;;;2.40;99.90;;;;;;4978239;28;20196;-76
2021/12/11 08:50:15;;;;;;;2.03;1.70;;;2.50;99.90;;;;;;4978270;28;20171;-76
2021/12/11 08:52:43;;;;;;;1.60;1.50;;;2.40;99.90;;;;;;4995734;28;20226;-76
2021/12/11 08:55:16;;;;;;;2.30;2.10;;;2.50;99.90;;;;;;4973119;28;20275;-76
2021/12/11 08:57:42;;;;;;;3.07;2.17;;;2.50;99.90;;;;;;4991185;28;20227;-77
2021/12/11 09:00:49;;;;;;;2.23;2.03;;;2.50;99.90;;;;;;4977713;28;20176;-76
2021/12/11 09:03:28;;;;;;;1.80;1.70;;;2.50;99.90;;;;;;4994333;28;20672;-76
2021/12/11 09:06:02;;;;;;;1.53;1.43;;;2.50;99.90;;;;;;4995685;28;20180;-76
2021/12/11 09:08:44;;;;;;;2.67;2.10;;;2.50;99.90;;;;;;4995410;28;20560;-76
2021/12/11 09:11:13;;;;;;;1.40;1.30;;;2.50;99.90;;;;;;4977261;28;20180;-77
2021/12/11 09:13:53;;;;;;;2.23;1.80;;;2.50;99.90;;;;;;4995442;28;20172;-76
2021/12/11 09:16:46;;;;;;;2.00;1.80;;;2.50;99.90;;;;;;4995055;28;20685;-77
2021/12/11 09:19:15;;;;;;;3.00;1.93;;;2.50;99.90;;;;;;4959084;28;20212;-77
2021/12/11 09:21:50;;;;;;;1.73;1.63;;;2.50;99.90;;;;;;4994915;28;20180;-76
2021/12/11 09:24:26;;;;;;;2.50;2.20;;;2.50;99.90;;;;;;4977736;28;20680;-77
2021/12/11 09:26:56;;;;;;;4.73;2.50;;;2.50;99.90;;;;;;4977402;28;20179;-77
2021/12/11 09:29:38;;;;;;;3.87;2.83;;;2.50;99.90;;;;;;4994900;28;20183;-75
2021/12/11 09:32:26;;;;;;;5.37;3.70;;;2.50;99.90;;;;;;4995199;28;20206;-77
2021/12/11 09:34:54;;;;;;;11.73;2.37;;;2.60;99.90;;;;;;4977600;28;20183;-76
2021/12/11 09:37:21;;;;;;;6.77;3.73;;;2.40;99.90;;;;;;4994674;28;20279;-76
2021/12/11 09:39:55;;;;;;;2.57;2.23;;;2.60;99.90;;;;;;4977360;28;20172;-77
2021/12/11 09:42:20;;;;;;;5.67;3.60;;;2.60;99.90;;;;;;4977238;28;20219;-77
2021/12/11 09:44:54;;;;;;;5.70;4.40;;;2.60;99.90;;;;;;4994853;28;20243;-77
2021/12/11 09:47:36;;;;;;;2.27;1.80;;;2.70;99.90;;;;;;4994663;28;20194;-76
2021/12/11 09:50:11;;;;;;;2.57;1.77;;;2.70;99.90;;;;;;4994716;28;20537;-76
2021/12/11 09:52:38;;;;;;;2.30;1.90;;;2.70;99.90;;;;;;4977288;28;20179;-77
2021/12/11 09:55:15;;;;;;;2.30;1.77;;;2.70;99.90;;;;;;4976924;28;20187;-77
2021/12/11 09:57:46;;;;;;;2.47;1.80;;;2.70;99.90;;;;;;4994334;28;20224;-77
2021/12/11 10:00:28;;;;;;;1.43;1.20;;;2.70;99.90;;;;;;4994620;28;20226;-76
2021/12/11 10:02:54;;;;;;;1.50;1.40;;;2.70;99.90;;;;;;4977559;28;20266;-76
2021/12/11 10:05:32;;;;;;;3.30;1.50;;;2.70;99.90;;;;;;4979587;28;20264;-77
2021/12/11 10:08:36;;;;;;;2.90;1.80;;;2.80;99.90;;;;;;4994207;28;20278;-77
2021/12/11 10:11:14;;;;;;;4.70;2.30;;;2.80;99.90;;;;;;4994325;28;20168;-77
2021/12/11 10:13:50;;;;;;;2.00;1.77;;;2.80;99.90;;;;;;4994611;28;20167;-77
2021/12/11 10:16:18;;;;;;;1.43;1.30;;;2.80;99.90;;;;;;4993958;28;20195;-78
2021/12/11 10:18:44;;;;;;;1.37;1.27;;;2.80;99.90;;;;;;4994071;28;20654;-77
2021/12/11 10:21:15;;;;;;;1.60;1.50;;;2.80;99.90;;;;;;4976610;28;20183;-77
2021/12/11 10:23:43;;;;;;;2.23;1.93;;;2.90;99.90;;;;;;4993301;28;20183;-77
2021/12/11 10:26:11;;;;;;;1.80;1.70;;;2.80;99.90;;;;;;4976648;28;20550;-77
2021/12/11 10:28:47;;;;;;;2.43;1.80;;;2.90;99.90;;;;;;4976414;28;20250;-77
2021/12/11 10:31:21;;;;;;;2.10;1.77;;;2.80;99.90;;;;;;4993773;28;20241;-76
2021/12/11 10:33:47;;;;;;;1.90;1.77;;;2.80;99.90;;;;;;4994226;28;20176;-77
2021/12/11 10:36:17;;;;;;;2.10;1.90;;;2.80;99.90;;;;;;4993336;28;20247;-76
2021/12/11 10:38:44;;;;;;;2.33;2.13;;;2.80;99.90;;;;;;4976652;28;20207;-77
2021/12/11 10:41:12;;;;;;;2.27;2.07;;;2.80;99.90;;;;;;4993896;28;20179;-76
2021/12/11 10:43:55;;;;;;;2.23;2.07;;;2.90;99.90;;;;;;4993866;28;20172;-77
2021/12/11 10:46:25;;;;;;;1.77;1.67;;;2.90;99.90;;;;;;4993816;28;20180;-76
2021/12/11 10:48:53;;;;;;;2.10;1.90;;;3.10;99.90;;;;;;4993267;28;20277;-76
2021/12/11 10:51:23;;;;;;;2.73;1.63;;;2.90;99.90;;;;;;4993685;28;20176;-77
2021/12/11 10:53:51;;;;;;;1.70;1.60;;;2.90;99.90;;;;;;4993711;28;20222;-76
2021/12/11 10:56:19;;;;;;;1.60;1.50;;;2.90;99.90;;;;;;4975696;28;20222;-77
2021/12/11 10:58:52;;;;;;;3.10;1.83;;;3.00;99.90;;;;;;4993693;28;20203;-77
2021/12/11 11:01:21;;;;;;;2.87;1.90;;;3.00;99.90;;;;;;4993593;28;20194;-77
2021/12/11 11:03:53;;;;;;;2.07;1.97;;;3.10;99.90;;;;;;4993982;28;20207;-76
2021/12/11 11:06:19;;;;;;;2.20;2.10;;;3.20;99.90;;;;;;4976999;28;20171;-77
2021/12/11 11:08:46;;;;;;;2.57;1.90;;;3.30;99.90;;;;;;4993615;28;20560;-77
2021/12/11 11:11:16;;;;;;;2.40;1.83;;;3.20;99.90;;;;;;4993642;28;20207;-77
2021/12/11 11:13:42;;;;;;;2.00;1.90;;;3.20;99.90;;;;;;4993878;28;20171;-76
2021/12/11 11:16:07;;;;;;;2.20;1.80;;;3.20;99.90;;;;;;4976168;28;20199;-77
2021/12/11 11:18:34;;;;;;;1.93;1.73;;;3.30;99.90;;;;;;4976150;28;20203;-76
2021/12/11 11:21:05;;;;;;;2.37;2.13;;;3.40;99.90;;;;;;4993701;28;20191;-76
2021/12/11 11:23:32;;;;;;;2.60;2.40;;;3.50;99.90;;;;;;4993543;28;20169;-75
2021/12/11 11:26:02;;;;;;;1.70;1.60;;;3.70;99.90;;;;;;4976095;28;20176;-75
2021/12/11 11:28:33;;;;;;;2.10;1.90;;;3.80;99.90;;;;;;4976574;28;20234;-76
2021/12/11 11:31:05;;;;;;;2.63;2.00;;;3.90;99.90;;;;;;4994561;28;20230;-77
2021/12/11 11:33:32;;;;;;;2.67;2.30;;;3.90;99.90;;;;;;4994849;28;20190;-76
2021/12/11 11:36:00;;;;;;;2.40;2.20;;;4.10;99.90;;;;;;4998071;28;20191;-76
2021/12/11 11:38:31;;;;;;;1.87;1.67;;;4.00;99.90;;;;;;4979940;28;20196;-77
2021/12/11 11:41:04;;;;;;;2.23;2.10;;;4.00;99.90;;;;;;4979963;28;20180;-76
2021/12/11 11:43:30;;;;;;;3.60;2.00;;;4.10;99.90;;;;;;4979537;28;20179;-76
2021/12/11 11:45:57;;;;;;;2.07;1.83;;;4.10;99.90;;;;;;4979426;28;20176;-75
2021/12/11 11:48:30;;;;;;;1.30;1.10;;;4.20;99.90;;;;;;4996677;28;20670;-75
2021/12/11 11:50:59;;;;;;;2.20;2.00;;;4.20;99.90;;;;;;4979226;28;20175;-75
2021/12/11 11:53:25;;;;;;;2.33;2.13;;;4.10;99.90;;;;;;4997240;28;20172;-76
2021/12/11 11:56:01;;;;;;;2.67;1.80;;;4.10;99.90;;;;;;4978997;28;20283;-76
2021/12/11 11:58:27;;;;;;;2.60;2.00;;;4.20;99.90;;;;;;4996732;28;20208;-74
2021/12/11 12:01:05;;;;;;;2.70;2.23;;;4.40;99.90;;;;;;4981608;28;20638;-75
2021/12/11 12:03:30;;;;;;;2.50;2.00;;;4.40;99.90;;;;;;4984685;28;20669;-76
2021/12/11 12:06:03;;;;;;;3.50;2.23;;;4.20;99.90;;;;;;4996540;28;20176;-76
2021/12/11 12:08:29;;;;;;;2.20;2.00;;;4.10;99.90;;;;;;4996701;28;20550;-77
2021/12/11 12:10:57;;;;;;;2.13;1.93;;;4.00;99.90;;;;;;4996811;28;20226;-76
2021/12/11 12:13:25;;;;;;;2.50;2.30;;;3.90;99.90;;;;;;4996353;28;20173;-76
2021/12/11 12:15:55;;;;;;;2.70;2.37;;;3.90;99.90;;;;;;4996137;28;20668;-77
2021/12/11 12:18:22;;;;;;;2.60;2.40;;;4.00;99.90;;;;;;4995711;28;20670;-77
2021/12/11 12:20:49;;;;;;;2.47;2.10;;;4.10;99.90;;;;;;4996169;28;20172;-76
2021/12/11 12:23:18;;;;;;;2.30;2.10;;;4.50;99.90;;;;;;5009944;28;20217;-76
2021/12/11 12:25:45;;;;;;;1.83;1.70;;;4.10;99.90;;;;;;4978575;28;20202;-75
2021/12/11 12:28:11;;;;;;;1.60;1.50;;;4.00;99.90;;;;;;4978479;28;20199;-75
2021/12/11 12:30:52;;;;;;;1.63;1.53;;;4.00;99.90;;;;;;4995929;28;20639;-76
2021/12/11 12:33:18;;;;;;;2.60;2.40;;;4.00;99.90;;;;;;4978903;28;20183;-77
2021/12/11 12:35:45;;;;;;;1.70;1.60;;;4.10;99.90;;;;;;4979182;28;20203;-77
2021/12/11 12:38:14;;;;;;;1.80;1.47;;;4.20;99.90;;;;;;4978434;28;20196;-76
2021/12/11 12:40:48;;;;;;;1.30;1.20;;;4.30;99.90;;;;;;4996048;28;20249;-76
2021/12/11 12:43:42;;;;;;;1.47;1.17;;;4.40;99.90;;;;;;4996201;28;20258;-76
2021/12/11 12:46:05;;;;;;;2.23;1.90;;;4.40;99.90;;;;;;4994787;28;20705;-76
2021/12/11 12:48:31;;;;;;;2.57;1.77;;;4.50;99.90;;;;;;4995718;28;20200;-76
2021/12/11 12:51:00;;;;;;;2.00;1.80;;;4.60;99.90;;;;;;4978511;28;20172;-77
2021/12/11 12:53:33;;;;;;;1.70;1.60;;;4.60;99.90;;;;;;4995747;28;20251;-76
2021/12/11 12:56:10;;;;;;;1.90;1.80;;;4.60;99.90;;;;;;4978144;28;20679;-77
2021/12/11 12:58:51;;;;;;;3.03;1.57;;;4.70;99.90;;;;;;5001166;23;20226;-78
2021/12/11 13:01:36;;;;;;;1.50;1.40;;;4.50;99.90;;;;;;5017543;28;20171;-79
2021/12/11 13:04:07;;;;;;;2.13;1.97;;;4.40;99.90;;;;;;5001192;28;20719;-78
2021/12/11 13:06:39;;;;;;;2.20;2.00;;;4.30;99.90;;;;;;5019932;28;20191;-78
2021/12/11 13:09:13;;;;;;;4.17;2.13;;;4.60;99.90;;;;;;5003288;28;20566;-76
2021/12/11 13:11:44;;;;;;;2.73;2.07;;;4.90;99.90;;;;;;4995172;28;20188;-76
2021/12/11 13:14:10;;;;;;;2.50;1.70;;;4.60;99.90;;;;;;4995364;28;20190;-76
2021/12/11 13:16:40;;;;;;;1.50;1.40;;;4.60;99.90;;;;;;4994822;28;20204;-76
2021/12/11 13:19:20;;;;;;;1.17;1.07;;;4.70;99.90;;;;;;4995132;28;20630;-76
2021/12/11 13:21:55;;;;;;;1.90;1.63;;;4.80;99.90;;;;;;4998357;28;20171;-78
2021/12/11 13:24:21;;;;;;;2.00;1.80;;;4.70;99.90;;;;;;5007070;28;20175;-78
2021/12/11 13:26:54;;;;;;;2.13;1.80;;;4.60;99.90;;;;;;5004644;28;20285;-78
2021/12/11 13:29:26;;;;;;;2.50;2.30;;;4.50;99.90;;;;;;5006171;28;20263;-79
2021/12/11 13:32:04;;;;;;;2.20;1.67;;;4.40;99.90;;;;;;4979890;28;20203;-78